Portknockie, United Kingdom
Current Conditions -  °F | °C
As of 10:50 PM on Thursday 27 Nov 2014 (Local Time) from EGQS Reporting Station
Light Rain Light Rain  
Wind Chill: 44°   Ceiling: 1000
Heat Index: 48°   Visibility: 6mi
Dew Point: 46°   Wind: 10mph
Humidity: 93%   Direction: 100°E
Pressure: 29.65"   Gusts: NA
Location:  57.7°N, 2.86°W
Report Text: EGQS 272250Z 10009KT 9999 -RA BKN010 09/08 Q1004 GRN NOSIG
Loading
Personal Weather Stations






























Interactive Weather Map New forecast layout! Learn more

10-Day Weather Forecast

Advertisements
Track Severe Weather on mobile